sensor_id;sensor_type;location;lat;lon;timestamp;P1;durP1;ratioP1;P2;durP2;ratioP2
84135;SDS011;74238;50.566;7.262;2024-03-17T00:00:37;9.13;;;4.25;;
84135;SDS011;74238;50.566;7.262;2024-03-17T00:03:04;6.47;;;3.40;;
84135;SDS011;74238;50.566;7.262;2024-03-17T00:05:30;5.68;;;3.47;;
84135;SDS011;74238;50.566;7.262;2024-03-17T00:07:56;5.05;;;3.00;;
84135;SDS011;74238;50.566;7.262;2024-03-17T00:10:21;4.40;;;4.00;;
84135;SDS011;74238;50.566;7.262;2024-03-17T00:12:46;6.63;;;3.38;;
84135;SDS011;74238;50.566;7.262;2024-03-17T00:15:11;6.78;;;3.53;;
84135;SDS011;74238;50.566;7.262;2024-03-17T00:17:40;8.63;;;4.32;;
84135;SDS011;74238;50.566;7.262;2024-03-17T00:20:06;6.13;;;3.80;;
84135;SDS011;74238;50.566;7.262;2024-03-17T00:22:43;7.15;;;3.20;;
84135;SDS011;74238;50.566;7.262;2024-03-17T00:25:08;6.18;;;3.90;;
84135;SDS011;74238;50.566;7.262;2024-03-17T00:27:34;8.05;;;3.97;;
84135;SDS011;74238;50.566;7.262;2024-03-17T00:30:04;5.75;;;3.60;;
84135;SDS011;74238;50.566;7.262;2024-03-17T00:32:35;5.20;;;3.70;;
84135;SDS011;74238;50.566;7.262;2024-03-17T00:35:00;8.45;;;4.00;;
84135;SDS011;74238;50.566;7.262;2024-03-17T00:37:26;7.97;;;3.85;;
84135;SDS011;74238;50.566;7.262;2024-03-17T00:39:52;7.68;;;3.97;;
84135;SDS011;74238;50.566;7.262;2024-03-17T00:42:17;6.43;;;3.43;;
84135;SDS011;74238;50.566;7.262;2024-03-17T00:44:42;8.30;;;4.22;;
84135;SDS011;74238;50.566;7.262;2024-03-17T00:47:08;5.50;;;3.95;;
84135;SDS011;74238;50.566;7.262;2024-03-17T00:49:33;6.07;;;4.17;;
84135;SDS011;74238;50.566;7.262;2024-03-17T00:51:58;6.32;;;4.03;;
84135;SDS011;74238;50.566;7.262;2024-03-17T00:54:24;6.70;;;3.50;;
84135;SDS011;74238;50.566;7.262;2024-03-17T00:56:49;6.38;;;3.63;;
84135;SDS011;74238;50.566;7.262;2024-03-17T00:59:15;6.05;;;3.75;;
84135;SDS011;74238;50.566;7.262;2024-03-17T01:01:41;8.68;;;3.50;;
84135;SDS011;74238;50.566;7.262;2024-03-17T01:04:06;7.17;;;3.57;;
84135;SDS011;74238;50.566;7.262;2024-03-17T01:06:31;6.60;;;4.07;;
84135;SDS011;74238;50.566;7.262;2024-03-17T01:08:57;8.63;;;3.90;;
84135;SDS011;74238;50.566;7.262;2024-03-17T01:11:23;5.25;;;3.47;;
84135;SDS011;74238;50.566;7.262;2024-03-17T01:13:49;6.05;;;3.67;;
84135;SDS011;74238;50.566;7.262;2024-03-17T01:16:15;9.85;;;4.68;;
84135;SDS011;74238;50.566;7.262;2024-03-17T01:18:41;4.38;;;3.00;;
84135;SDS011;74238;50.566;7.262;2024-03-17T01:21:08;7.72;;;3.40;;
84135;SDS011;74238;50.566;7.262;2024-03-17T01:23:33;5.95;;;4.18;;
84135;SDS011;74238;50.566;7.262;2024-03-17T01:25:58;5.15;;;3.53;;
84135;SDS011;74238;50.566;7.262;2024-03-17T01:28:24;3.90;;;2.92;;
84135;SDS011;74238;50.566;7.262;2024-03-17T01:30:49;6.78;;;3.40;;
84135;SDS011;74238;50.566;7.262;2024-03-17T01:33:14;4.22;;;3.08;;
84135;SDS011;74238;50.566;7.262;2024-03-17T01:35:43;5.15;;;3.88;;
84135;SDS011;74238;50.566;7.262;2024-03-17T01:38:08;4.60;;;3.00;;
84135;SDS011;74238;50.566;7.262;2024-03-17T01:43:00;4.13;;;3.05;;
84135;SDS011;74238;50.566;7.262;2024-03-17T01:45:30;7.60;;;3.45;;
84135;SDS011;74238;50.566;7.262;2024-03-17T01:47:57;7.07;;;3.55;;
84135;SDS011;74238;50.566;7.262;2024-03-17T01:50:36;4.95;;;3.30;;
84135;SDS011;74238;50.566;7.262;2024-03-17T01:53:03;4.85;;;3.30;;
84135;SDS011;74238;50.566;7.262;2024-03-17T01:55:30;6.35;;;2.90;;
84135;SDS011;74238;50.566;7.262;2024-03-17T01:57:57;3.78;;;3.08;;
84135;SDS011;74238;50.566;7.262;2024-03-17T02:00:23;4.70;;;2.75;;
84135;SDS011;74238;50.566;7.262;2024-03-17T02:02:48;5.57;;;3.05;;
84135;SDS011;74238;50.566;7.262;2024-03-17T02:05:14;8.80;;;3.13;;
84135;SDS011;74238;50.566;7.262;2024-03-17T02:07:39;7.97;;;3.05;;
84135;SDS011;74238;50.566;7.262;2024-03-17T02:10:05;6.07;;;3.13;;
84135;SDS011;74238;50.566;7.262;2024-03-17T02:12:33;4.20;;;2.97;;
84135;SDS011;74238;50.566;7.262;2024-03-17T02:14:59;7.40;;;3.00;;
84135;SDS011;74238;50.566;7.262;2024-03-17T02:17:25;4.97;;;2.78;;
84135;SDS011;74238;50.566;7.262;2024-03-17T02:22:17;3.33;;;2.57;;
84135;SDS011;74238;50.566;7.262;2024-03-17T02:24:45;3.97;;;2.90;;
84135;SDS011;74238;50.566;7.262;2024-03-17T02:27:11;3.53;;;2.58;;
84135;SDS011;74238;50.566;7.262;2024-03-17T02:29:37;4.13;;;3.08;;
84135;SDS011;74238;50.566;7.262;2024-03-17T02:32:03;5.30;;;2.95;;
84135;SDS011;74238;50.566;7.262;2024-03-17T02:34:34;4.38;;;3.08;;
84135;SDS011;74238;50.566;7.262;2024-03-17T02:37:00;5.05;;;2.75;;
84135;SDS011;74238;50.566;7.262;2024-03-17T02:39:26;4.55;;;2.78;;
84135;SDS011;74238;50.566;7.262;2024-03-17T02:42:02;7.07;;;2.95;;
84135;SDS011;74238;50.566;7.262;2024-03-17T02:44:31;4.50;;;2.70;;
84135;SDS011;74238;50.566;7.262;2024-03-17T02:46:58;4.22;;;2.67;;
84135;SDS011;74238;50.566;7.262;2024-03-17T02:49:24;3.95;;;2.70;;
84135;SDS011;74238;50.566;7.262;2024-03-17T02:52:00;5.70;;;3.10;;
84135;SDS011;74238;50.566;7.262;2024-03-17T02:54:25;4.22;;;2.75;;
84135;SDS011;74238;50.566;7.262;2024-03-17T02:56:51;6.63;;;2.87;;
84135;SDS011;74238;50.566;7.262;2024-03-17T02:59:16;3.85;;;2.45;;
84135;SDS011;74238;50.566;7.262;2024-03-17T03:01:42;4.40;;;2.85;;
84135;SDS011;74238;50.566;7.262;2024-03-17T03:04:07;5.35;;;2.50;;
84135;SDS011;74238;50.566;7.262;2024-03-17T03:06:33;5.20;;;2.78;;
84135;SDS011;74238;50.566;7.262;2024-03-17T03:08:59;5.65;;;2.70;;
84135;SDS011;74238;50.566;7.262;2024-03-17T03:11:24;7.68;;;2.88;;
84135;SDS011;74238;50.566;7.262;2024-03-17T03:13:49;3.67;;;2.42;;
84135;SDS011;74238;50.566;7.262;2024-03-17T03:16:15;6.10;;;2.95;;
84135;SDS011;74238;50.566;7.262;2024-03-17T03:18:41;6.15;;;2.95;;
84135;SDS011;74238;50.566;7.262;2024-03-17T03:21:07;7.43;;;2.92;;
84135;SDS011;74238;50.566;7.262;2024-03-17T03:23:32;10.05;;;3.33;;
84135;SDS011;74238;50.566;7.262;2024-03-17T03:25:59;3.97;;;3.10;;
84135;SDS011;74238;50.566;7.262;2024-03-17T03:28:27;3.40;;;2.80;;
84135;SDS011;74238;50.566;7.262;2024-03-17T03:30:53;4.35;;;2.83;;
84135;SDS011;74238;50.566;7.262;2024-03-17T03:33:19;6.35;;;3.10;;
84135;SDS011;74238;50.566;7.262;2024-03-17T03:35:45;4.03;;;2.92;;
84135;SDS011;74238;50.566;7.262;2024-03-17T03:38:10;5.78;;;2.92;;
84135;SDS011;74238;50.566;7.262;2024-03-17T03:40:36;4.93;;;3.50;;
84135;SDS011;74238;50.566;7.262;2024-03-17T03:43:01;3.80;;;2.80;;
84135;SDS011;74238;50.566;7.262;2024-03-17T03:45:27;4.82;;;2.90;;
84135;SDS011;74238;50.566;7.262;2024-03-17T03:47:52;3.92;;;2.90;;
84135;SDS011;74238;50.566;7.262;2024-03-17T03:50:20;4.32;;;2.63;;
84135;SDS011;74238;50.566;7.262;2024-03-17T03:52:48;5.80;;;3.10;;
84135;SDS011;74238;50.566;7.262;2024-03-17T03:55:15;4.65;;;3.08;;
84135;SDS011;74238;50.566;7.262;2024-03-17T03:57:42;5.32;;;3.30;;
84135;SDS011;74238;50.566;7.262;2024-03-17T04:00:11;8.32;;;3.10;;
84135;SDS011;74238;50.566;7.262;2024-03-17T04:02:40;4.80;;;3.17;;
84135;SDS011;74238;50.566;7.262;2024-03-17T04:05:07;2.85;;;2.13;;
84135;SDS011;74238;50.566;7.262;2024-03-17T04:07:33;3.53;;;2.72;;
84135;SDS011;74238;50.566;7.262;2024-03-17T04:09:59;3.40;;;2.72;;
84135;SDS011;74238;50.566;7.262;2024-03-17T04:12:25;6.47;;;2.70;;
84135;SDS011;74238;50.566;7.262;2024-03-17T04:14:50;4.55;;;2.85;;
84135;SDS011;74238;50.566;7.262;2024-03-17T04:17:18;5.05;;;2.90;;
84135;SDS011;74238;50.566;7.262;2024-03-17T04:19:48;4.47;;;2.65;;
84135;SDS011;74238;50.566;7.262;2024-03-17T04:22:14;4.57;;;2.83;;
84135;SDS011;74238;50.566;7.262;2024-03-17T04:24:40;5.15;;;2.97;;
84135;SDS011;74238;50.566;7.262;2024-03-17T04:27:05;5.00;;;3.00;;
84135;SDS011;74238;50.566;7.262;2024-03-17T04:29:31;3.67;;;2.78;;
84135;SDS011;74238;50.566;7.262;2024-03-17T04:31:56;3.88;;;2.90;;
84135;SDS011;74238;50.566;7.262;2024-03-17T04:34:21;4.70;;;2.95;;
84135;SDS011;74238;50.566;7.262;2024-03-17T04:36:47;4.38;;;3.10;;
84135;SDS011;74238;50.566;7.262;2024-03-17T04:39:12;4.87;;;2.90;;
84135;SDS011;74238;50.566;7.262;2024-03-17T04:41:37;6.75;;;3.15;;
84135;SDS011;74238;50.566;7.262;2024-03-17T04:44:06;3.78;;;2.60;;
84135;SDS011;74238;50.566;7.262;2024-03-17T04:46:32;15.38;;;3.58;;
84135;SDS011;74238;50.566;7.262;2024-03-17T04:48:58;7.65;;;3.38;;
84135;SDS011;74238;50.566;7.262;2024-03-17T04:51:23;4.07;;;2.92;;
84135;SDS011;74238;50.566;7.262;2024-03-17T04:53:49;5.35;;;3.03;;
84135;SDS011;74238;50.566;7.262;2024-03-17T04:56:14;6.25;;;3.72;;
84135;SDS011;74238;50.566;7.262;2024-03-17T04:58:39;3.67;;;2.78;;
84135;SDS011;74238;50.566;7.262;2024-03-17T05:01:05;4.38;;;3.20;;
84135;SDS011;74238;50.566;7.262;2024-03-17T05:03:33;4.18;;;3.33;;
84135;SDS011;74238;50.566;7.262;2024-03-17T05:06:00;4.38;;;2.85;;
84135;SDS011;74238;50.566;7.262;2024-03-17T05:08:27;5.20;;;3.10;;
84135;SDS011;74238;50.566;7.262;2024-03-17T05:10:56;4.68;;;2.78;;
84135;SDS011;74238;50.566;7.262;2024-03-17T05:13:23;5.03;;;3.10;;
84135;SDS011;74238;50.566;7.262;2024-03-17T05:15:50;5.18;;;3.33;;
84135;SDS011;74238;50.566;7.262;2024-03-17T05:18:15;4.03;;;3.05;;
84135;SDS011;74238;50.566;7.262;2024-03-17T05:20:40;6.10;;;3.40;;
84135;SDS011;74238;50.566;7.262;2024-03-17T05:23:05;8.70;;;3.58;;
84135;SDS011;74238;50.566;7.262;2024-03-17T05:25:31;4.87;;;3.43;;
84135;SDS011;74238;50.566;7.262;2024-03-17T05:28:01;6.78;;;3.35;;
84135;SDS011;74238;50.566;7.262;2024-03-17T05:30:26;3.20;;;2.42;;
84135;SDS011;74238;50.566;7.262;2024-03-17T05:32:52;4.03;;;3.00;;
84135;SDS011;74238;50.566;7.262;2024-03-17T05:35:17;4.93;;;2.35;;
84135;SDS011;74238;50.566;7.262;2024-03-17T05:37:42;4.43;;;2.70;;
84135;SDS011;74238;50.566;7.262;2024-03-17T05:40:09;4.53;;;2.38;;
84135;SDS011;74238;50.566;7.262;2024-03-17T05:42:37;3.25;;;2.47;;
84135;SDS011;74238;50.566;7.262;2024-03-17T05:45:02;4.00;;;2.50;;
84135;SDS011;74238;50.566;7.262;2024-03-17T05:47:28;4.65;;;3.15;;
84135;SDS011;74238;50.566;7.262;2024-03-17T05:49:54;4.22;;;3.08;;
84135;SDS011;74238;50.566;7.262;2024-03-17T05:52:20;8.27;;;3.13;;
84135;SDS011;74238;50.566;7.262;2024-03-17T05:54:47;4.05;;;2.95;;
84135;SDS011;74238;50.566;7.262;2024-03-17T05:57:12;4.93;;;2.97;;
84135;SDS011;74238;50.566;7.262;2024-03-17T05:59:39;7.03;;;3.17;;
84135;SDS011;74238;50.566;7.262;2024-03-17T06:02:04;5.32;;;3.20;;
84135;SDS011;74238;50.566;7.262;2024-03-17T06:04:29;3.58;;;2.60;;
84135;SDS011;74238;50.566;7.262;2024-03-17T06:06:55;4.00;;;2.92;;
84135;SDS011;74238;50.566;7.262;2024-03-17T06:09:20;6.15;;;2.83;;
84135;SDS011;74238;50.566;7.262;2024-03-17T06:11:47;4.82;;;3.17;;
84135;SDS011;74238;50.566;7.262;2024-03-17T06:14:13;6.13;;;3.70;;
84135;SDS011;74238;50.566;7.262;2024-03-17T06:16:39;4.38;;;3.13;;
84135;SDS011;74238;50.566;7.262;2024-03-17T06:19:04;5.20;;;3.17;;
84135;SDS011;74238;50.566;7.262;2024-03-17T06:21:30;4.15;;;3.20;;
84135;SDS011;74238;50.566;7.262;2024-03-17T06:23:56;4.20;;;3.03;;
84135;SDS011;74238;50.566;7.262;2024-03-17T06:26:22;7.75;;;3.83;;
84135;SDS011;74238;50.566;7.262;2024-03-17T06:28:48;7.47;;;3.67;;
84135;SDS011;74238;50.566;7.262;2024-03-17T06:31:13;6.40;;;3.60;;
84135;SDS011;74238;50.566;7.262;2024-03-17T06:33:38;5.07;;;3.83;;
84135;SDS011;74238;50.566;7.262;2024-03-17T06:36:04;7.83;;;4.03;;
84135;SDS011;74238;50.566;7.262;2024-03-17T06:38:30;5.85;;;4.07;;
84135;SDS011;74238;50.566;7.262;2024-03-17T06:40:56;8.15;;;4.25;;
84135;SDS011;74238;50.566;7.262;2024-03-17T06:43:22;4.43;;;3.47;;
84135;SDS011;74238;50.566;7.262;2024-03-17T06:45:54;5.78;;;4.30;;
84135;SDS011;74238;50.566;7.262;2024-03-17T06:48:24;5.78;;;4.00;;
84135;SDS011;74238;50.566;7.262;2024-03-17T06:50:50;7.00;;;3.95;;
84135;SDS011;74238;50.566;7.262;2024-03-17T06:53:22;6.30;;;4.78;;
84135;SDS011;74238;50.566;7.262;2024-03-17T06:55:53;7.15;;;4.47;;
84135;SDS011;74238;50.566;7.262;2024-03-17T06:58:22;6.75;;;5.10;;
84135;SDS011;74238;50.566;7.262;2024-03-17T07:00:59;8.05;;;5.38;;
84135;SDS011;74238;50.566;7.262;2024-03-17T07:03:26;14.00;;;7.15;;
84135;SDS011;74238;50.566;7.262;2024-03-17T07:05:53;14.40;;;8.82;;
84135;SDS011;74238;50.566;7.262;2024-03-17T07:08:20;15.95;;;8.73;;
84135;SDS011;74238;50.566;7.262;2024-03-17T07:13:25;14.48;;;9.05;;
84135;SDS011;74238;50.566;7.262;2024-03-17T07:15:50;16.38;;;10.02;;
84135;SDS011;74238;50.566;7.262;2024-03-17T07:18:15;12.35;;;8.68;;
84135;SDS011;74238;50.566;7.262;2024-03-17T07:20:41;15.85;;;9.73;;
84135;SDS011;74238;50.566;7.262;2024-03-17T07:23:07;14.70;;;8.40;;
84135;SDS011;74238;50.566;7.262;2024-03-17T07:25:32;12.48;;;8.15;;
84135;SDS011;74238;50.566;7.262;2024-03-17T07:27:57;16.17;;;7.63;;
84135;SDS011;74238;50.566;7.262;2024-03-17T07:30:23;14.38;;;9.20;;
84135;SDS011;74238;50.566;7.262;2024-03-17T07:32:49;15.65;;;8.93;;
84135;SDS011;74238;50.566;7.262;2024-03-17T07:35:15;17.43;;;8.57;;
84135;SDS011;74238;50.566;7.262;2024-03-17T07:37:40;15.15;;;8.93;;
84135;SDS011;74238;50.566;7.262;2024-03-17T07:40:05;15.23;;;8.93;;
84135;SDS011;74238;50.566;7.262;2024-03-17T07:42:35;11.85;;;8.43;;
84135;SDS011;74238;50.566;7.262;2024-03-17T07:45:01;15.23;;;8.13;;
84135;SDS011;74238;50.566;7.262;2024-03-17T07:47:26;14.55;;;9.15;;
84135;SDS011;74238;50.566;7.262;2024-03-17T07:49:53;12.77;;;7.50;;
84135;SDS011;74238;50.566;7.262;2024-03-17T07:52:19;14.38;;;8.07;;
84135;SDS011;74238;50.566;7.262;2024-03-17T07:54:44;10.57;;;7.13;;
84135;SDS011;74238;50.566;7.262;2024-03-17T07:57:10;9.70;;;6.40;;
84135;SDS011;74238;50.566;7.262;2024-03-17T07:59:35;11.05;;;7.32;;
84135;SDS011;74238;50.566;7.262;2024-03-17T08:02:00;12.30;;;7.50;;
84135;SDS011;74238;50.566;7.262;2024-03-17T08:04:26;13.02;;;6.63;;
84135;SDS011;74238;50.566;7.262;2024-03-17T08:06:51;8.77;;;6.40;;
84135;SDS011;74238;50.566;7.262;2024-03-17T08:09:17;11.52;;;5.72;;
84135;SDS011;74238;50.566;7.262;2024-03-17T08:11:43;10.23;;;5.63;;
84135;SDS011;74238;50.566;7.262;2024-03-17T08:14:11;11.27;;;5.47;;
84135;SDS011;74238;50.566;7.262;2024-03-17T08:16:37;10.25;;;5.60;;
84135;SDS011;74238;50.566;7.262;2024-03-17T08:19:03;9.88;;;4.95;;
84135;SDS011;74238;50.566;7.262;2024-03-17T08:21:28;7.18;;;5.40;;
84135;SDS011;74238;50.566;7.262;2024-03-17T08:23:54;9.02;;;5.68;;
84135;SDS011;74238;50.566;7.262;2024-03-17T08:26:20;9.88;;;5.22;;
84135;SDS011;74238;50.566;7.262;2024-03-17T08:28:45;9.05;;;5.25;;
84135;SDS011;74238;50.566;7.262;2024-03-17T08:31:11;8.20;;;5.65;;
84135;SDS011;74238;50.566;7.262;2024-03-17T08:33:36;10.55;;;6.35;;
84135;SDS011;74238;50.566;7.262;2024-03-17T08:38:29;9.13;;;5.13;;
84135;SDS011;74238;50.566;7.262;2024-03-17T08:40:56;10.13;;;5.85;;
84135;SDS011;74238;50.566;7.262;2024-03-17T08:43:22;9.05;;;5.85;;
84135;SDS011;74238;50.566;7.262;2024-03-17T08:46:05;8.25;;;5.75;;
84135;SDS011;74238;50.566;7.262;2024-03-17T08:48:33;8.70;;;5.38;;
84135;SDS011;74238;50.566;7.262;2024-03-17T08:51:01;9.52;;;5.90;;
84135;SDS011;74238;50.566;7.262;2024-03-17T08:53:27;10.88;;;6.20;;
84135;SDS011;74238;50.566;7.262;2024-03-17T08:55:53;7.40;;;5.43;;
84135;SDS011;74238;50.566;7.262;2024-03-17T08:58:20;7.78;;;5.53;;
84135;SDS011;74238;50.566;7.262;2024-03-17T09:00:45;9.07;;;5.10;;
84135;SDS011;74238;50.566;7.262;2024-03-17T09:03:11;8.45;;;5.03;;
84135;SDS011;74238;50.566;7.262;2024-03-17T09:05:41;6.38;;;4.63;;
84135;SDS011;74238;50.566;7.262;2024-03-17T09:08:09;7.90;;;5.50;;
84135;SDS011;74238;50.566;7.262;2024-03-17T09:10:41;9.38;;;4.30;;
84135;SDS011;74238;50.566;7.262;2024-03-17T09:13:07;9.65;;;4.30;;
84135;SDS011;74238;50.566;7.262;2024-03-17T09:15:38;7.28;;;4.53;;
84135;SDS011;74238;50.566;7.262;2024-03-17T09:18:03;7.47;;;4.27;;
84135;SDS011;74238;50.566;7.262;2024-03-17T09:20:28;6.13;;;3.63;;
84135;SDS011;74238;50.566;7.262;2024-03-17T09:22:54;5.90;;;3.55;;
84135;SDS011;74238;50.566;7.262;2024-03-17T09:25:20;6.65;;;3.53;;
84135;SDS011;74238;50.566;7.262;2024-03-17T09:27:46;5.82;;;3.25;;
84135;SDS011;74238;50.566;7.262;2024-03-17T09:30:11;5.77;;;3.13;;
84135;SDS011;74238;50.566;7.262;2024-03-17T09:32:37;4.63;;;3.05;;
84135;SDS011;74238;50.566;7.262;2024-03-17T09:35:03;6.05;;;3.05;;
84135;SDS011;74238;50.566;7.262;2024-03-17T09:37:29;5.53;;;3.45;;
84135;SDS011;74238;50.566;7.262;2024-03-17T09:42:22;7.70;;;2.97;;
84135;SDS011;74238;50.566;7.262;2024-03-17T09:44:50;5.50;;;3.00;;
84135;SDS011;74238;50.566;7.262;2024-03-17T09:47:21;4.65;;;3.05;;
84135;SDS011;74238;50.566;7.262;2024-03-17T09:49:47;5.45;;;3.15;;
84135;SDS011;74238;50.566;7.262;2024-03-17T09:54:59;6.50;;;3.30;;
84135;SDS011;74238;50.566;7.262;2024-03-17T09:57:26;6.95;;;2.60;;
84135;SDS011;74238;50.566;7.262;2024-03-17T09:59:54;3.90;;;2.67;;
84135;SDS011;74238;50.566;7.262;2024-03-17T10:02:20;5.07;;;3.03;;
84135;SDS011;74238;50.566;7.262;2024-03-17T10:07:11;7.60;;;3.10;;
84135;SDS011;74238;50.566;7.262;2024-03-17T10:09:37;5.85;;;2.78;;
84135;SDS011;74238;50.566;7.262;2024-03-17T10:12:04;6.00;;;3.28;;
84135;SDS011;74238;50.566;7.262;2024-03-17T10:14:30;5.65;;;3.05;;
84135;SDS011;74238;50.566;7.262;2024-03-17T10:16:56;6.97;;;3.08;;
84135;SDS011;74238;50.566;7.262;2024-03-17T10:19:22;7.10;;;2.88;;
84135;SDS011;74238;50.566;7.262;2024-03-17T10:21:49;7.35;;;3.30;;
84135;SDS011;74238;50.566;7.262;2024-03-17T10:24:22;5.40;;;3.03;;
84135;SDS011;74238;50.566;7.262;2024-03-17T10:26:49;5.68;;;3.35;;
84135;SDS011;74238;50.566;7.262;2024-03-17T10:29:35;6.13;;;3.53;;
84135;SDS011;74238;50.566;7.262;2024-03-17T10:32:04;5.18;;;2.78;;
84135;SDS011;74238;50.566;7.262;2024-03-17T10:34:43;5.75;;;3.38;;
84135;SDS011;74238;50.566;7.262;2024-03-17T10:39:39;5.35;;;3.55;;
84135;SDS011;74238;50.566;7.262;2024-03-17T10:42:06;6.35;;;3.45;;
84135;SDS011;74238;50.566;7.262;2024-03-17T10:44:34;5.53;;;3.90;;
84135;SDS011;74238;50.566;7.262;2024-03-17T10:47:01;5.60;;;3.63;;
84135;SDS011;74238;50.566;7.262;2024-03-17T10:49:29;6.35;;;3.25;;
84135;SDS011;74238;50.566;7.262;2024-03-17T10:52:02;5.60;;;3.03;;
84135;SDS011;74238;50.566;7.262;2024-03-17T10:54:29;5.78;;;3.13;;
84135;SDS011;74238;50.566;7.262;2024-03-17T10:59:41;6.75;;;3.78;;
84135;SDS011;74238;50.566;7.262;2024-03-17T11:02:32;5.70;;;3.63;;
84135;SDS011;74238;50.566;7.262;2024-03-17T11:05:09;6.43;;;3.25;;
84135;SDS011;74238;50.566;7.262;2024-03-17T11:07:38;5.28;;;3.33;;
84135;SDS011;74238;50.566;7.262;2024-03-17T11:10:08;6.28;;;3.70;;
84135;SDS011;74238;50.566;7.262;2024-03-17T11:20:23;5.75;;;3.25;;
84135;SDS011;74238;50.566;7.262;2024-03-17T11:22:55;5.22;;;3.58;;
84135;SDS011;74238;50.566;7.262;2024-03-17T11:28:02;7.97;;;3.70;;
84135;SDS011;74238;50.566;7.262;2024-03-17T11:33:50;8.27;;;3.78;;
84135;SDS011;74238;50.566;7.262;2024-03-17T11:39:04;6.70;;;4.07;;
84135;SDS011;74238;50.566;7.262;2024-03-17T11:46:44;5.57;;;3.78;;
84135;SDS011;74238;50.566;7.262;2024-03-17T11:49:18;5.65;;;3.42;;
84135;SDS011;74238;50.566;7.262;2024-03-17T11:51:46;5.35;;;3.35;;
84135;SDS011;74238;50.566;7.262;2024-03-17T11:54:13;6.50;;;3.92;;
84135;SDS011;74238;50.566;7.262;2024-03-17T11:56:43;6.18;;;3.45;;
84135;SDS011;74238;50.566;7.262;2024-03-17T11:59:10;6.07;;;3.42;;
84135;SDS011;74238;50.566;7.262;2024-03-17T12:01:36;5.55;;;3.30;;
84135;SDS011;74238;50.566;7.262;2024-03-17T12:06:31;7.00;;;4.25;;
84135;SDS011;74238;50.566;7.262;2024-03-17T12:09:40;7.38;;;4.00;;
84135;SDS011;74238;50.566;7.262;2024-03-17T12:12:03;7.00;;;4.00;;
84135;SDS011;74238;50.566;7.262;2024-03-17T12:14:30;7.20;;;3.50;;
84135;SDS011;74238;50.566;7.262;2024-03-17T12:17:00;6.40;;;3.67;;
84135;SDS011;74238;50.566;7.262;2024-03-17T12:19:28;7.75;;;3.90;;
84135;SDS011;74238;50.566;7.262;2024-03-17T12:21:57;7.13;;;4.55;;
84135;SDS011;74238;50.566;7.262;2024-03-17T12:24:25;7.15;;;4.15;;
84135;SDS011;74238;50.566;7.262;2024-03-17T12:26:55;7.07;;;3.78;;
84135;SDS011;74238;50.566;7.262;2024-03-17T12:31:58;5.10;;;4.15;;
84135;SDS011;74238;50.566;7.262;2024-03-17T12:34:37;7.60;;;3.83;;
84135;SDS011;74238;50.566;7.262;2024-03-17T12:37:03;5.45;;;3.97;;
84135;SDS011;74238;50.566;7.262;2024-03-17T12:39:32;5.88;;;4.03;;
84135;SDS011;74238;50.566;7.262;2024-03-17T12:44:28;7.53;;;4.00;;
84135;SDS011;74238;50.566;7.262;2024-03-17T12:46:55;5.95;;;3.67;;
84135;SDS011;74238;50.566;7.262;2024-03-17T12:49:28;6.45;;;3.97;;
84135;SDS011;74238;50.566;7.262;2024-03-17T12:51:56;5.03;;;3.42;;
84135;SDS011;74238;50.566;7.262;2024-03-17T12:54:24;8.63;;;4.03;;
84135;SDS011;74238;50.566;7.262;2024-03-17T12:56:51;7.18;;;4.30;;
84135;SDS011;74238;50.566;7.262;2024-03-17T12:59:47;7.00;;;3.60;;
84135;SDS011;74238;50.566;7.262;2024-03-17T13:02:31;7.03;;;3.72;;
84135;SDS011;74238;50.566;7.262;2024-03-17T13:07:45;7.03;;;3.95;;
84135;SDS011;74238;50.566;7.262;2024-03-17T13:10:14;8.15;;;3.85;;
84135;SDS011;74238;50.566;7.262;2024-03-17T13:12:46;4.60;;;3.40;;
84135;SDS011;74238;50.566;7.262;2024-03-17T13:15:13;7.93;;;3.67;;
84135;SDS011;74238;50.566;7.262;2024-03-17T13:17:41;7.30;;;3.55;;
84135;SDS011;74238;50.566;7.262;2024-03-17T13:20:07;5.53;;;3.42;;
84135;SDS011;74238;50.566;7.262;2024-03-17T13:22:37;6.25;;;3.55;;
84135;SDS011;74238;50.566;7.262;2024-03-17T13:25:05;6.28;;;3.50;;
84135;SDS011;74238;50.566;7.262;2024-03-17T13:27:30;7.40;;;3.95;;
84135;SDS011;74238;50.566;7.262;2024-03-17T13:29:56;5.38;;;3.55;;
84135;SDS011;74238;50.566;7.262;2024-03-17T13:32:21;7.23;;;3.83;;
84135;SDS011;74238;50.566;7.262;2024-03-17T13:34:46;5.78;;;3.75;;
84135;SDS011;74238;50.566;7.262;2024-03-17T13:37:12;5.37;;;3.60;;
84135;SDS011;74238;50.566;7.262;2024-03-17T13:39:37;4.85;;;3.05;;
84135;SDS011;74238;50.566;7.262;2024-03-17T13:42:07;5.00;;;3.17;;
84135;SDS011;74238;50.566;7.262;2024-03-17T13:44:34;6.60;;;3.85;;
84135;SDS011;74238;50.566;7.262;2024-03-17T13:47:00;4.55;;;3.15;;
84135;SDS011;74238;50.566;7.262;2024-03-17T13:49:28;5.45;;;3.42;;
84135;SDS011;74238;50.566;7.262;2024-03-17T13:51:54;6.22;;;3.88;;
84135;SDS011;74238;50.566;7.262;2024-03-17T13:54:20;4.90;;;3.55;;
84135;SDS011;74238;50.566;7.262;2024-03-17T13:56:47;5.57;;;3.72;;
84135;SDS011;74238;50.566;7.262;2024-03-17T13:59:13;6.15;;;3.70;;
84135;SDS011;74238;50.566;7.262;2024-03-17T14:01:39;8.65;;;3.88;;
84135;SDS011;74238;50.566;7.262;2024-03-17T14:04:07;5.97;;;3.35;;
84135;SDS011;74238;50.566;7.262;2024-03-17T14:06:34;7.28;;;3.83;;
84135;SDS011;74238;50.566;7.262;2024-03-17T14:08:59;6.03;;;3.40;;
84135;SDS011;74238;50.566;7.262;2024-03-17T14:11:25;5.50;;;3.80;;
84135;SDS011;74238;50.566;7.262;2024-03-17T14:13:50;5.68;;;3.15;;
84135;SDS011;74238;50.566;7.262;2024-03-17T14:16:15;4.28;;;3.10;;
84135;SDS011;74238;50.566;7.262;2024-03-17T14:18:41;6.53;;;3.67;;
84135;SDS011;74238;50.566;7.262;2024-03-17T14:21:06;7.65;;;3.63;;
84135;SDS011;74238;50.566;7.262;2024-03-17T14:23:31;8.70;;;3.75;;
84135;SDS011;74238;50.566;7.262;2024-03-17T14:25:58;7.05;;;3.70;;
84135;SDS011;74238;50.566;7.262;2024-03-17T14:28:23;7.05;;;4.13;;
84135;SDS011;74238;50.566;7.262;2024-03-17T14:30:49;5.55;;;3.85;;
84135;SDS011;74238;50.566;7.262;2024-03-17T14:33:15;7.30;;;4.17;;
84135;SDS011;74238;50.566;7.262;2024-03-17T14:35:40;7.18;;;3.45;;
84135;SDS011;74238;50.566;7.262;2024-03-17T14:38:06;7.03;;;3.42;;
84135;SDS011;74238;50.566;7.262;2024-03-17T14:40:32;7.57;;;3.47;;
84135;SDS011;74238;50.566;7.262;2024-03-17T14:42:57;4.10;;;2.92;;
84135;SDS011;74238;50.566;7.262;2024-03-17T14:45:24;6.07;;;3.30;;
84135;SDS011;74238;50.566;7.262;2024-03-17T14:47:50;5.97;;;3.40;;
84135;SDS011;74238;50.566;7.262;2024-03-17T14:50:17;5.80;;;3.50;;
84135;SDS011;74238;50.566;7.262;2024-03-17T14:52:42;4.78;;;2.80;;
84135;SDS011;74238;50.566;7.262;2024-03-17T14:55:09;6.53;;;3.22;;
84135;SDS011;74238;50.566;7.262;2024-03-17T14:57:35;7.57;;;3.20;;
84135;SDS011;74238;50.566;7.262;2024-03-17T15:00:02;4.53;;;2.92;;
84135;SDS011;74238;50.566;7.262;2024-03-17T15:02:28;5.88;;;3.30;;
84135;SDS011;74238;50.566;7.262;2024-03-17T15:04:54;5.43;;;2.78;;
84135;SDS011;74238;50.566;7.262;2024-03-17T15:07:19;5.60;;;3.08;;
84135;SDS011;74238;50.566;7.262;2024-03-17T15:09:45;3.55;;;2.90;;
84135;SDS011;74238;50.566;7.262;2024-03-17T15:12:10;6.97;;;3.30;;
84135;SDS011;74238;50.566;7.262;2024-03-17T15:14:35;5.22;;;2.92;;
84135;SDS011;74238;50.566;7.262;2024-03-17T15:17:02;5.57;;;3.42;;
84135;SDS011;74238;50.566;7.262;2024-03-17T15:19:28;6.20;;;3.17;;
84135;SDS011;74238;50.566;7.262;2024-03-17T15:21:54;4.47;;;2.70;;
84135;SDS011;74238;50.566;7.262;2024-03-17T15:24:19;4.60;;;2.58;;
84135;SDS011;74238;50.566;7.262;2024-03-17T15:26:45;4.45;;;2.80;;
84135;SDS011;74238;50.566;7.262;2024-03-17T15:31:37;5.82;;;2.85;;
84135;SDS011;74238;50.566;7.262;2024-03-17T15:34:02;6.07;;;3.03;;
84135;SDS011;74238;50.566;7.262;2024-03-17T15:36:28;6.07;;;2.95;;
84135;SDS011;74238;50.566;7.262;2024-03-17T15:38:55;4.13;;;2.13;;
84135;SDS011;74238;50.566;7.262;2024-03-17T15:41:20;5.50;;;2.85;;